This is the latest recevied weather packets stored in our database for station/object WW5JC. If no packets are shown the sender has not sent any weather packets the latest 10 day(s).
| Time | Temp. | Humidity | Pressure | Rain* | Wind** | Luminosity | Snow |
|---|---|---|---|---|---|---|---|
| 1777497664 | 17.78° C | 90% | 1015.3 hPa | 0 mm | - | 44 W/m² | - |
| 1777497361 | 17.78° C | 90% | 1015.6 hPa | 0 mm | - | 50 W/m² | - |
| 1777497057 | 17.78° C | 90% | 1015.8 hPa | 0 mm | - | 31 W/m² | - |
| 1777496754 | 17.78° C | 90% | 1016.6 hPa | 0 mm | - | 13 W/m² | - |
| 1777496450 | 18.33° C | 89% | 1015.5 hPa | 0 mm | - | 33 W/m² | - |
| 1777496147 | 18.33° C | 88% | 1015.2 hPa | 0 mm | - | 48 W/m² | - |
| 1777495843 | 18.89° C | 86% | 1014.9 hPa | 0 mm | - | 91 W/m² | - |
| 1777495539 | 18.89° C | 86% | 1015.1 hPa | 0 mm | - | 106 W/m² | - |
| 1777495235 | 18.89° C | 84% | 1015.7 hPa | 0 mm | - | 63 W/m² | - |
| 1777494933 | 18.89° C | 84% | 1015.5 hPa | 0 mm | - | 97 W/m² | - |
| 1777494630 | 18.89° C | 85% | 1015.7 hPa | 0 mm | - | 126 W/m² | - |
| 1777494327 | 18.89° C | 87% | 1015.6 hPa | 0 mm | - | 142 W/m² | - |
| 1777494023 | 18.89° C | 84% | 1016 hPa | 0 mm | - | 104 W/m² | - |
| 1777493722 | 18.89° C | 85% | 1016 hPa | 0 mm | - | 110 W/m² | - |
| 1777493420 | 18.89° C | 87% | 1015.4 hPa | 0 mm | - | 190 W/m² | - |
| 1777493115 | 18.33° C | 87% | 1016.1 hPa | 0 mm | - | 78 W/m² | - |
| 1777492812 | 18.33° C | 86% | 1016.2 hPa | 0 mm | - | 55 W/m² | - |
| 1777492508 | 18.33° C | 86% | 1015.8 hPa | 0 mm | - | 58 W/m² | - |
| 1777492204 | 18.89° C | 85% | 1015.3 hPa | 0 mm | - | 87 W/m² | - |
| 1777491901 | 18.89° C | 87% | 1015.2 hPa | 0 mm | - | 142 W/m² | - |
| 1777491598 | 18.89° C | 86% | 1015.3 hPa | 0 mm | - | 160 W/m² | - |
| 1777491296 | 18.89° C | 86% | 1015.5 hPa | 0 mm | - | 125 W/m² | - |
| 1777490992 | 18.89° C | 86% | 1015.5 hPa | 0 mm | - | 167 W/m² | - |
| 1777490688 | 18.33° C | 88% | 1015.6 hPa | 0 mm | - | 175 W/m² | - |
| 1777490384 | 18.33° C | 87% | 1015.8 hPa | 0 mm | - | 112 W/m² | - |
* Rain latest hour (hover to see other rain measurements)
** Current wind speed in m/s (hover to see current wind gust speed)